Time;durP1;ratioP1;P1;durP2;ratioP2;P2;SDS_P1;SDS_P2;PMS_P1;PMS_P2;Temp;Humidity;BMP_temperature;BMP_pressure;BME280_temperature;BME280_humidity;BME280_pressure;Samples;Min_cycle;Max_cycle;Signal;HPM_P1;HPM_P2
2023/07/11 00:02:15;;;;;;;5.55;0.98;;;19.20;99.90;;;;;;5096361;28;20405;-74
2023/07/11 00:04:41;;;;;;;4.85;0.90;;;19.20;99.90;;;;;;5097846;28;20404;-74
2023/07/11 00:07:07;;;;;;;4.77;1.50;;;19.10;99.90;;;;;;5096945;28;20501;-74
2023/07/11 00:09:32;;;;;;;3.78;1.02;;;19.10;99.90;;;;;;5097612;28;20404;-74
2023/07/11 00:11:58;;;;;;;2.87;0.83;;;19.20;99.90;;;;;;5096660;28;20483;-74
2023/07/11 00:14:24;;;;;;;5.03;1.35;;;19.20;99.90;;;;;;5096814;28;20941;-74
2023/07/11 00:16:49;;;;;;;3.30;0.80;;;19.20;1.00;;;;;;5089562;28;20912;-74
2023/07/11 00:19:19;;;;;;;4.20;1.05;;;19.10;1.00;;;;;;5092362;28;20489;-74
2023/07/11 00:21:46;;;;;;;4.65;0.80;;;19.20;1.00;;;;;;5094550;28;20406;-74
2023/07/11 00:24:12;;;;;;;4.40;0.93;;;19.20;1.00;;;;;;5101065;28;20393;-74
2023/07/11 00:26:37;;;;;;;3.38;0.80;;;19.20;1.00;;;;;;5088587;28;20850;-74
2023/07/11 00:29:22;;;;;;;4.55;0.90;;;19.10;1.00;;;;;;5091748;28;20404;-73
2023/07/11 00:31:47;;;;;;;4.28;0.90;;;19.00;1.00;;;;;;5085775;28;20414;-74
2023/07/11 00:34:13;;;;;;;5.57;0.98;;;19.00;1.00;;;;;;5091155;28;20453;-74
2023/07/11 00:36:38;;;;;;;5.23;1.00;;;19.00;1.00;;;;;;5086312;28;20491;-74
2023/07/11 00:39:05;;;;;;;3.45;0.90;;;18.90;1.00;;;;;;5090758;28;20520;-74
2023/07/11 00:41:31;;;;;;;2.80;0.85;;;18.90;1.00;;;;;;5094709;28;21122;-74
2023/07/11 00:43:57;;;;;;;2.85;0.70;;;18.80;1.00;;;;;;5101129;28;20401;-74
2023/07/11 00:46:23;;;;;;;3.57;0.90;;;18.80;1.00;;;;;;5097297;28;20826;-74
2023/07/11 00:49:00;;;;;;;5.53;0.70;;;18.80;99.90;;;;;;5092403;28;20400;-74
2023/07/11 00:51:35;;;;;;;3.35;0.75;;;18.80;1.00;;;;;;5098679;28;20418;-74
2023/07/11 00:54:03;;;;;;;5.03;1.10;;;18.80;1.00;;;;;;5092140;28;20469;-74
2023/07/11 00:56:33;;;;;;;4.70;0.82;;;18.80;1.00;;;;;;5093411;28;20414;-74
2023/07/11 00:59:00;;;;;;;4.40;1.17;;;18.70;85.90;;;;;;5086135;28;20392;-74
2023/07/11 01:01:26;;;;;;;3.45;0.70;;;18.80;99.90;;;;;;5095020;28;20412;-74
2023/07/11 01:03:53;;;;;;;2.72;0.73;;;18.70;99.90;;;;;;5095007;28;20410;-74
2023/07/11 01:06:23;;;;;;;3.45;0.80;;;18.70;99.90;;;;;;5092540;28;21335;-74
2023/07/11 01:08:51;;;;;;;4.38;0.80;;;18.70;99.90;;;;;;5094703;28;20402;-74
2023/07/11 01:11:19;;;;;;;3.95;1.02;;;18.70;99.90;;;;;;5099239;28;20397;-74
2023/07/11 01:13:45;;;;;;;5.45;0.77;;;18.70;99.90;;;;;;5093160;28;20401;-73
2023/07/11 01:16:10;;;;;;;4.40;0.80;;;18.80;99.90;;;;;;5086308;28;20493;-73
2023/07/11 01:18:37;;;;;;;4.93;1.00;;;18.80;99.90;;;;;;5087411;28;20991;-74
2023/07/11 01:21:06;;;;;;;4.95;1.77;;;18.80;99.90;;;;;;5099813;28;20415;-74
2023/07/11 01:23:33;;;;;;;4.75;1.67;;;18.70;99.90;;;;;;5092316;28;20498;-74
2023/07/11 01:26:05;;;;;;;5.15;1.30;;;18.80;99.90;;;;;;5097703;28;20456;-74
2023/07/11 01:28:30;;;;;;;4.35;0.88;;;18.70;99.90;;;;;;5086878;28;20421;-74
2023/07/11 01:30:56;;;;;;;4.07;1.10;;;18.70;99.90;;;;;;5097818;28;20412;-73
2023/07/11 01:33:24;;;;;;;3.90;1.00;;;18.70;99.90;;;;;;5076354;28;20402;-73
2023/07/11 01:35:52;;;;;;;4.75;1.30;;;18.80;99.90;;;;;;5096685;28;20481;-73
2023/07/11 01:38:19;;;;;;;4.60;1.50;;;18.70;99.90;;;;;;5094147;28;20409;-73
2023/07/11 01:40:45;;;;;;;4.15;1.60;;;18.70;99.90;;;;;;5089667;28;20409;-73
2023/07/11 01:43:10;;;;;;;5.28;1.73;;;18.70;99.90;;;;;;5100458;28;20398;-73
2023/07/11 01:45:36;;;;;;;5.67;1.70;;;18.60;99.90;;;;;;5103233;28;20407;-73
2023/07/11 01:48:01;;;;;;;4.97;2.00;;;18.60;99.90;;;;;;5096705;28;20493;-73
2023/07/11 01:50:27;;;;;;;5.57;2.00;;;18.50;99.90;;;;;;5096625;28;20404;-73
2023/07/11 01:52:53;;;;;;;5.03;1.70;;;18.50;99.90;;;;;;5097770;28;20402;-73
2023/07/11 01:55:18;;;;;;;7.38;1.90;;;18.50;99.90;;;;;;5102558;28;20405;-73
2023/07/11 01:57:44;;;;;;;4.40;1.60;;;18.50;99.90;;;;;;5098007;28;20931;-73
2023/07/11 02:00:11;;;;;;;4.80;1.60;;;18.50;1.00;;;;;;5101963;28;20488;-73
2023/07/11 02:02:36;;;;;;;6.88;1.80;;;18.50;1.00;;;;;;5096854;28;20402;-73
2023/07/11 02:05:02;;;;;;;5.10;1.50;;;18.50;1.00;;;;;;5101384;28;21132;-73
2023/07/11 02:07:28;;;;;;;3.85;1.30;;;18.50;99.90;;;;;;5079878;28;20856;-73
2023/07/11 02:09:53;;;;;;;5.90;1.50;;;18.50;99.90;;;;;;5100917;28;20461;-73
2023/07/11 02:12:19;;;;;;;5.43;1.30;;;18.50;99.90;;;;;;5096890;28;20768;-73
2023/07/11 02:14:46;;;;;;;6.70;2.00;;;18.50;1.00;;;;;;5103061;28;20400;-73
2023/07/11 02:17:14;;;;;;;6.73;1.60;;;18.60;13.20;;;;;;5096240;28;20469;-73
2023/07/11 02:19:41;;;;;;;5.55;1.73;;;18.60;1.00;;;;;;5071763;28;20410;-73
2023/07/11 02:22:07;;;;;;;5.00;1.60;;;18.60;1.00;;;;;;5095835;28;20406;-73
2023/07/11 02:24:33;;;;;;;4.88;1.63;;;18.70;1.00;;;;;;5100424;28;20458;-73
2023/07/11 02:26:59;;;;;;;4.93;1.73;;;18.70;1.00;;;;;;5095065;28;20907;-73
2023/07/11 02:29:25;;;;;;;3.88;1.42;;;18.70;99.90;;;;;;5082723;28;20417;-73
2023/07/11 02:31:50;;;;;;;5.18;1.40;;;18.80;99.90;;;;;;5094862;28;20412;-73
2023/07/11 02:34:16;;;;;;;5.32;1.50;;;18.80;99.90;;;;;;5099218;28;20849;-73
2023/07/11 02:36:42;;;;;;;4.23;1.43;;;18.80;99.90;;;;;;5095036;28;20410;-73
2023/07/11 02:39:07;;;;;;;5.60;1.60;;;18.80;99.90;;;;;;5093306;28;20410;-73
2023/07/11 02:41:33;;;;;;;5.97;1.63;;;18.80;99.90;;;;;;5074145;28;20402;-73
2023/07/11 02:43:59;;;;;;;4.55;1.42;;;18.80;99.90;;;;;;5102816;28;20412;-73
2023/07/11 02:46:25;;;;;;;3.97;1.30;;;18.80;99.90;;;;;;5098329;28;20418;-73
2023/07/11 02:48:51;;;;;;;3.70;1.10;;;18.80;99.90;;;;;;5088820;28;20768;-73
2023/07/11 02:51:17;;;;;;;5.55;1.15;;;18.80;99.90;;;;;;5092160;28;20411;-73
2023/07/11 02:53:43;;;;;;;5.80;1.25;;;18.70;99.90;;;;;;5096770;28;20408;-73
2023/07/11 02:56:09;;;;;;;5.93;1.48;;;18.70;99.90;;;;;;5096463;28;20923;-73
2023/07/11 02:58:34;;;;;;;4.50;1.27;;;18.70;99.90;;;;;;5079528;28;20491;-73
2023/07/11 03:01:02;;;;;;;6.97;1.50;;;18.70;99.90;;;;;;5096352;28;21294;-73
2023/07/11 03:03:27;;;;;;;4.78;1.20;;;18.70;99.90;;;;;;5096847;28;21374;-73
2023/07/11 03:05:54;;;;;;;4.60;1.20;;;18.60;99.90;;;;;;5080603;28;20406;-73
2023/07/11 03:08:20;;;;;;;4.45;1.10;;;18.60;99.90;;;;;;5093009;28;20559;-73
2023/07/11 03:10:45;;;;;;;5.50;1.30;;;18.60;99.90;;;;;;5098103;28;20955;-73
2023/07/11 03:13:11;;;;;;;6.00;1.30;;;18.60;99.90;;;;;;5100006;28;20538;-73
2023/07/11 03:15:38;;;;;;;6.78;1.63;;;18.60;99.90;;;;;;5096663;28;20405;-73
2023/07/11 03:18:04;;;;;;;3.53;1.10;;;18.60;99.90;;;;;;5100626;28;20395;-73
2023/07/11 03:20:30;;;;;;;6.15;1.45;;;18.60;94.10;;;;;;5090062;28;20485;-73
2023/07/11 03:22:56;;;;;;;4.07;0.93;;;18.60;21.50;;;;;;5098364;28;20537;-73
2023/07/11 03:25:21;;;;;;;4.78;1.33;;;18.60;1.00;;;;;;5093998;28;20428;-73
2023/07/11 03:27:47;;;;;;;6.70;1.00;;;18.60;1.00;;;;;;5094317;28;20528;-73
2023/07/11 03:30:13;;;;;;;5.53;1.40;;;18.60;1.00;;;;;;5088983;28;21178;-73
2023/07/11 03:32:38;;;;;;;4.93;0.97;;;18.60;1.00;;;;;;5099529;28;20412;-73
2023/07/11 03:35:04;;;;;;;4.47;1.10;;;18.60;1.00;;;;;;5093177;28;20416;-73
2023/07/11 03:37:30;;;;;;;4.20;1.07;;;18.60;1.00;;;;;;5092641;28;20397;-73
2023/07/11 03:39:56;;;;;;;4.25;0.90;;;18.60;1.00;;;;;;5089575;28;20410;-73
2023/07/11 03:42:22;;;;;;;5.63;1.10;;;18.60;1.00;;;;;;5102201;28;20484;-73
2023/07/11 03:44:47;;;;;;;4.77;1.37;;;18.60;1.00;;;;;;5080740;28;20410;-73
2023/07/11 03:47:13;;;;;;;4.67;1.27;;;18.60;1.00;;;;;;5100703;28;20424;-73
2023/07/11 03:49:39;;;;;;;6.88;1.17;;;18.60;1.00;;;;;;5098215;28;20741;-73
2023/07/11 03:52:05;;;;;;;7.90;1.30;;;18.60;1.00;;;;;;5100989;28;20890;-73
2023/07/11 03:54:30;;;;;;;5.68;1.25;;;18.60;1.00;;;;;;5096056;28;20958;-73
2023/07/11 03:56:56;;;;;;;8.07;1.60;;;18.60;1.00;;;;;;5098970;28;20404;-73
2023/07/11 03:59:21;;;;;;;7.63;1.70;;;18.60;15.40;;;;;;5086935;28;20988;-73
2023/07/11 04:01:47;;;;;;;6.23;1.70;;;18.60;52.40;;;;;;5099132;28;20401;-73
2023/07/11 04:04:13;;;;;;;5.80;1.48;;;18.50;57.30;;;;;;5092726;28;20406;-73
2023/07/11 04:06:39;;;;;;;7.88;2.03;;;18.50;83.90;;;;;;5097323;28;20428;-73
2023/07/11 04:09:05;;;;;;;6.20;1.88;;;18.50;99.90;;;;;;5075121;28;20743;-73
2023/07/11 04:11:31;;;;;;;7.22;1.85;;;18.50;99.90;;;;;;5092107;28;20439;-73
2023/07/11 04:13:56;;;;;;;6.05;1.60;;;18.50;99.90;;;;;;5093066;28;20469;-73
2023/07/11 04:16:22;;;;;;;6.30;1.70;;;18.50;99.90;;;;;;5096713;28;20946;-73
2023/07/11 04:18:48;;;;;;;8.63;1.93;;;18.50;99.90;;;;;;5092926;28;20398;-73
2023/07/11 04:21:13;;;;;;;5.82;1.60;;;18.50;99.90;;;;;;5097963;28;20412;-73
2023/07/11 04:23:39;;;;;;;7.53;2.13;;;18.60;99.90;;;;;;5091761;28;20945;-73
2023/07/11 04:26:05;;;;;;;6.88;1.65;;;18.60;99.90;;;;;;5092766;28;20422;-73
2023/07/11 04:28:30;;;;;;;5.60;1.90;;;18.60;99.90;;;;;;5090515;28;20419;-73
2023/07/11 04:30:56;;;;;;;5.67;1.90;;;18.60;99.90;;;;;;5095222;28;20408;-73
2023/07/11 04:33:22;;;;;;;9.32;2.30;;;18.60;1.00;;;;;;5090940;28;20406;-73
2023/07/11 04:35:48;;;;;;;6.60;1.92;;;18.60;1.00;;;;;;5095753;28;20825;-73
2023/07/11 04:38:14;;;;;;;5.67;2.10;;;18.70;28.70;;;;;;5091851;28;20417;-73
2023/07/11 04:40:39;;;;;;;6.78;1.92;;;18.70;99.90;;;;;;5095439;28;20400;-73
2023/07/11 04:43:05;;;;;;;8.17;2.20;;;18.70;99.90;;;;;;5096401;28;20398;-73
2023/07/11 04:45:32;;;;;;;6.68;1.58;;;18.80;99.90;;;;;;5078603;28;21000;-73
2023/07/11 04:48:01;;;;;;;7.45;1.90;;;18.80;99.90;;;;;;5097917;28;20429;-74
2023/07/11 04:50:26;;;;;;;4.88;1.88;;;18.90;99.90;;;;;;5084188;28;20479;-73
2023/07/11 04:52:52;;;;;;;5.73;1.87;;;18.90;99.90;;;;;;5097211;28;20551;-73
2023/07/11 04:55:18;;;;;;;7.32;2.10;;;18.90;99.90;;;;;;5101504;28;20959;-73
2023/07/11 04:57:44;;;;;;;7.17;2.20;;;18.90;99.90;;;;;;5096543;28;20407;-73
2023/07/11 05:00:10;;;;;;;5.00;1.95;;;18.80;99.90;;;;;;5101107;28;20407;-73
2023/07/11 05:02:36;;;;;;;6.60;2.22;;;18.90;99.90;;;;;;5096878;28;20772;-73
2023/07/11 05:05:02;;;;;;;6.10;2.20;;;18.80;1.00;;;;;;5083678;28;20411;-73
2023/07/11 05:07:27;;;;;;;7.63;2.40;;;18.80;1.00;;;;;;5097013;28;20448;-73
2023/07/11 05:09:53;;;;;;;6.35;2.50;;;18.80;1.00;;;;;;5104861;28;20397;-73
2023/07/11 05:12:19;;;;;;;6.33;2.50;;;18.80;1.00;;;;;;5101075;28;20413;-73
2023/07/11 05:14:44;;;;;;;7.38;2.50;;;18.80;5.50;;;;;;5087918;28;20392;-73
2023/07/11 05:17:10;;;;;;;7.07;3.05;;;18.80;92.40;;;;;;5090352;28;20489;-71
2023/07/11 05:19:35;;;;;;;7.67;2.70;;;18.80;98.90;;;;;;5085966;28;20408;-72
2023/07/11 05:22:01;;;;;;;6.65;2.55;;;18.80;99.90;;;;;;5102025;28;20416;-72
2023/07/11 05:24:28;;;;;;;7.67;3.00;;;18.80;99.90;;;;;;5094473;28;20942;-73
2023/07/11 05:26:54;;;;;;;7.13;3.10;;;18.90;1.00;;;;;;5091370;28;20433;-72
2023/07/11 05:29:20;;;;;;;6.75;2.78;;;18.90;1.00;;;;;;5079831;28;20442;-73
2023/07/11 05:31:45;;;;;;;6.77;2.70;;;18.90;26.20;;;;;;5099877;28;20478;-73
2023/07/11 05:34:11;;;;;;;5.87;2.80;;;19.00;35.40;;;;;;5106033;28;20479;-73
2023/07/11 05:36:37;;;;;;;6.82;3.00;;;19.10;99.90;;;;;;5100420;28;20481;-73
2023/07/11 05:39:10;;;;;;;6.37;3.03;;;19.20;1.00;;;;;;5095235;28;20410;-73
2023/07/11 05:41:37;;;;;;;6.60;3.00;;;19.30;1.00;;;;;;5100592;28;20512;-73
2023/07/11 05:44:03;;;;;;;7.78;3.22;;;19.40;99.90;;;;;;5103366;28;20898;-73
2023/07/11 05:46:30;;;;;;;5.40;2.75;;;19.50;99.90;;;;;;5098152;28;20829;-74
2023/07/11 05:48:57;;;;;;;8.10;3.23;;;19.60;99.90;;;;;;5097281;28;20400;-72
2023/07/11 05:51:23;;;;;;;7.28;2.72;;;19.70;99.90;;;;;;5083198;28;20416;-73
2023/07/11 05:53:49;;;;;;;7.78;2.80;;;19.70;99.90;;;;;;5103027;28;20435;-73
2023/07/11 05:56:16;;;;;;;8.88;3.00;;;19.80;99.90;;;;;;5101414;28;20926;-73
2023/07/11 05:58:44;;;;;;;6.03;2.53;;;19.80;99.90;;;;;;5094117;28;20911;-73
2023/07/11 06:01:17;;;;;;;6.07;2.42;;;19.90;99.90;;;;;;5100770;28;20404;-73
2023/07/11 06:03:45;;;;;;;8.50;2.88;;;20.00;99.90;;;;;;5100966;28;20834;-73
2023/07/11 06:06:14;;;;;;;6.70;2.90;;;20.10;99.90;;;;;;5101088;28;20428;-73
2023/07/11 06:08:40;;;;;;;5.65;2.67;;;20.10;99.90;;;;;;5100110;28;20501;-73
2023/07/11 06:11:06;;;;;;;5.18;2.83;;;20.10;99.90;;;;;;5103219;28;20396;-72
2023/07/11 06:13:34;;;;;;;6.53;3.13;;;20.10;64.30;;;;;;5082928;28;20409;-73
2023/07/11 06:16:04;;;;;;;6.43;2.95;;;20.10;99.90;;;;;;5101502;28;20405;-73
2023/07/11 06:18:32;;;;;;;7.18;3.03;;;20.10;99.90;;;;;;5099458;28;20899;-73
2023/07/11 06:20:58;;;;;;;9.73;3.50;;;20.10;1.00;;;;;;5102312;28;20436;-73
2023/07/11 06:23:24;;;;;;;5.22;2.63;;;20.20;99.90;;;;;;5093492;28;20871;-73
2023/07/11 06:25:49;;;;;;;9.57;3.33;;;20.40;11.30;;;;;;5101178;28;20401;-73
2023/07/11 06:28:15;;;;;;;7.67;2.77;;;20.50;1.00;;;;;;5097064;28;20428;-73
2023/07/11 06:30:41;;;;;;;7.45;3.20;;;20.50;1.00;;;;;;5101515;28;20432;-73
2023/07/11 06:33:13;;;;;;;8.98;3.30;;;20.60;1.00;;;;;;5098645;28;20576;-73
2023/07/11 06:35:41;;;;;;;9.63;3.50;;;20.60;94.60;;;;;;5102378;28;20408;-73
2023/07/11 06:38:08;;;;;;;6.85;3.30;;;20.80;1.00;;;;;;5096468;28;20410;-73
2023/07/11 06:40:33;;;;;;;8.32;3.53;;;20.80;99.90;;;;;;5095746;28;20400;-73
2023/07/11 06:42:59;;;;;;;8.83;3.83;;;20.90;99.90;;;;;;5096373;28;20409;-73
2023/07/11 06:45:25;;;;;;;6.95;3.42;;;21.00;27.20;;;;;;5102222;28;20411;-73
2023/07/11 06:47:51;;;;;;;7.10;3.40;;;21.00;3.80;;;;;;5096943;28;20837;-73
2023/07/11 06:50:16;;;;;;;6.60;3.30;;;21.10;1.00;;;;;;5100307;28;20479;-73
2023/07/11 06:52:43;;;;;;;7.67;3.50;;;21.30;1.00;;;;;;5095577;28;20900;-73
2023/07/11 06:55:09;;;;;;;7.30;2.95;;;21.30;1.00;;;;;;5099930;28;20453;-73
2023/07/11 06:57:35;;;;;;;7.93;3.20;;;21.40;99.90;;;;;;5096060;28;20806;-73
2023/07/11 07:00:00;;;;;;;7.32;2.90;;;21.50;99.90;;;;;;5095551;28;20444;-73
2023/07/11 07:02:26;;;;;;;8.63;2.80;;;21.50;99.90;;;;;;5095622;28;20729;-73
2023/07/11 07:04:52;;;;;;;8.27;2.63;;;21.60;99.90;;;;;;5100788;28;20404;-73
2023/07/11 07:07:19;;;;;;;7.57;2.57;;;21.80;98.10;;;;;;5088554;28;21157;-73
2023/07/11 07:09:45;;;;;;;5.90;2.33;;;21.90;91.40;;;;;;5100551;28;20426;-73
2023/07/11 07:12:10;;;;;;;7.45;2.03;;;22.00;71.50;;;;;;5094924;28;20407;-73
2023/07/11 07:14:36;;;;;;;8.07;2.40;;;22.20;1.00;;;;;;5100387;28;20407;-73
2023/07/11 07:17:02;;;;;;;6.35;2.25;;;22.30;1.00;;;;;;5070739;28;20939;-73
2023/07/11 07:19:27;;;;;;;7.33;2.47;;;22.30;99.90;;;;;;5099758;28;20436;-73
2023/07/11 07:21:53;;;;;;;6.43;2.38;;;22.30;99.90;;;;;;5089261;28;20398;-73
2023/07/11 07:24:19;;;;;;;5.55;2.15;;;22.30;99.90;;;;;;5099046;28;20496;-74
2023/07/11 07:26:44;;;;;;;5.27;2.40;;;22.40;99.90;;;;;;5092964;28;20438;-73
2023/07/11 07:29:10;;;;;;;10.02;2.67;;;22.40;99.90;;;;;;5091996;28;20416;-73
2023/07/11 07:31:35;;;;;;;4.80;2.08;;;22.50;99.90;;;;;;5075177;28;20417;-73
2023/07/11 07:34:01;;;;;;;6.17;2.33;;;22.60;99.90;;;;;;5098848;28;20408;-73
2023/07/11 07:36:27;;;;;;;6.85;2.17;;;22.70;99.90;;;;;;5087151;28;20444;-73
2023/07/11 07:38:52;;;;;;;5.93;2.03;;;22.80;99.90;;;;;;5087437;28;20449;-73
2023/07/11 07:41:19;;;;;;;5.00;2.05;;;22.90;99.90;;;;;;5095504;28;20410;-73
2023/07/11 07:43:45;;;;;;;7.67;2.20;;;23.00;99.90;;;;;;5102403;28;20400;-73
2023/07/11 07:46:16;;;;;;;8.52;2.67;;;23.20;99.70;;;;;;5088949;28;20494;-73
2023/07/11 07:48:43;;;;;;;5.95;1.95;;;23.40;79.30;;;;;;5087259;28;20413;-73
2023/07/11 07:51:14;;;;;;;6.60;2.70;;;23.50;17.00;;;;;;5096079;28;20508;-73
2023/07/11 07:53:40;;;;;;;4.47;1.88;;;23.60;8.80;;;;;;5101590;28;20404;-73
2023/07/11 07:56:11;;;;;;;4.77;2.07;;;23.70;1.00;;;;;;5094863;28;20421;-73
2023/07/11 07:58:37;;;;;;;5.25;1.77;;;23.80;1.00;;;;;;5087061;28;20410;-73
2023/07/11 08:01:04;;;;;;;5.40;1.80;;;24.00;1.00;;;;;;5090557;28;20395;-73
2023/07/11 08:03:30;;;;;;;5.97;1.95;;;24.10;1.00;;;;;;5083762;28;20477;-73
2023/07/11 08:05:57;;;;;;;4.68;2.10;;;24.20;1.00;;;;;;5096166;28;20406;-74
2023/07/11 08:08:23;;;;;;;6.97;1.90;;;24.20;1.00;;;;;;5082298;28;20690;-74
2023/07/11 08:10:48;;;;;;;5.40;2.00;;;24.30;1.00;;;;;;5096905;28;20398;-74
2023/07/11 08:13:14;;;;;;;5.07;2.10;;;24.20;1.00;;;;;;5099584;28;20932;-74
2023/07/11 08:15:43;;;;;;;5.97;1.67;;;24.20;1.00;;;;;;5094954;28;20455;-73
2023/07/11 08:18:10;;;;;;;5.13;1.97;;;24.30;1.00;;;;;;5091250;28;20410;-74
2023/07/11 08:20:35;;;;;;;5.05;1.83;;;24.30;1.00;;;;;;5086147;28;20548;-74
2023/07/11 08:23:01;;;;;;;5.37;2.47;;;24.40;1.00;;;;;;5093318;28;20498;-73
2023/07/11 08:25:27;;;;;;;7.05;2.13;;;24.40;1.00;;;;;;5092873;28;20749;-74
2023/07/11 08:27:53;;;;;;;20.42;3.03;;;24.60;1.00;;;;;;5094204;28;20436;-74
2023/07/11 08:30:19;;;;;;;10.90;2.22;;;24.70;1.00;;;;;;5094310;28;20492;-74
2023/07/11 08:32:44;;;;;;;39.93;4.60;;;24.90;1.00;;;;;;5098917;28;20735;-74
2023/07/11 08:35:10;;;;;;;11.37;2.63;;;24.90;99.90;;;;;;5094222;28;20952;-74
2023/07/11 08:37:36;;;;;;;60.60;7.75;;;25.00;99.90;;;;;;5075804;28;20400;-74
2023/07/11 08:40:02;;;;;;;7.90;1.90;;;25.10;99.90;;;;;;5090742;28;20436;-74
2023/07/11 08:42:40;;;;;;;5.95;1.67;;;25.10;99.90;;;;;;5102352;28;20407;-74
2023/07/11 08:45:24;;;;;;;4.82;1.60;;;25.10;99.90;;;;;;5103165;28;20407;-73
2023/07/11 08:48:01;;;;;;;5.50;1.67;;;25.10;99.90;;;;;;5073959;28;20453;-74
2023/07/11 08:50:40;;;;;;;6.47;1.70;;;25.10;99.90;;;;;;5103962;28;20411;-73
2023/07/11 08:53:11;;;;;;;5.95;1.85;;;25.10;99.90;;;;;;5097882;28;20401;-73
2023/07/11 08:55:48;;;;;;;6.32;2.00;;;25.10;99.90;;;;;;5099148;28;20410;-73
2023/07/11 08:58:30;;;;;;;6.30;1.90;;;25.10;99.90;;;;;;5098141;28;20955;-73
2023/07/11 09:00:57;;;;;;;4.63;1.80;;;25.10;99.90;;;;;;5073435;28;20497;-73
2023/07/11 09:03:43;;;;;;;7.05;1.75;;;25.20;99.90;;;;;;5102160;28;20538;-73
2023/07/11 09:06:17;;;;;;;8.80;2.22;;;25.20;99.90;;;;;;5095754;28;20418;-73
2023/07/11 09:08:45;;;;;;;5.32;1.80;;;25.20;99.90;;;;;;5097109;28;20476;-73
2023/07/11 09:11:52;;;;;;;6.63;2.10;;;25.30;99.90;;;;;;5090548;28;20997;-73
2023/07/11 09:14:27;;;;;;;3.95;1.45;;;25.50;99.90;;;;;;5079223;28;20412;-73
2023/07/11 09:17:24;;;;;;;10.30;2.05;;;25.70;99.90;;;;;;5090998;28;20413;-73
2023/07/11 09:19:56;;;;;;;4.03;1.50;;;25.80;99.90;;;;;;5080421;28;20404;-73
2023/07/11 09:23:08;;;;;;;5.25;1.73;;;25.90;99.90;;;;;;5073911;28;20840;-73
2023/07/11 09:25:42;;;;;;;6.03;1.42;;;26.10;99.90;;;;;;5090419;28;20421;-73
2023/07/11 09:28:24;;;;;;;6.82;1.33;;;26.20;99.90;;;;;;5098318;28;20425;-74
2023/07/11 09:31:00;;;;;;;5.15;1.52;;;26.30;99.90;;;;;;5093954;28;20913;-73
2023/07/11 09:33:39;;;;;;;6.55;1.73;;;26.40;99.90;;;;;;5086897;28;20917;-73
2023/07/11 09:36:17;;;;;;;4.60;1.60;;;26.60;99.90;;;;;;5089412;28;20455;-74
2023/07/11 09:38:50;;;;;;;5.35;1.17;;;27.00;99.90;;;;;;5093972;28;20417;-74
2023/07/11 09:41:29;;;;;;;5.93;1.40;;;27.50;99.90;;;;;;5099288;28;20450;-74
2023/07/11 09:43:55;;;;;;;5.20;1.27;;;27.80;99.90;;;;;;5100972;28;20501;-74
2023/07/11 09:46:24;;;;;;;5.37;1.37;;;28.10;99.90;;;;;;5098019;28;20501;-74
2023/07/11 09:48:54;;;;;;;4.50;1.45;;;28.10;99.90;;;;;;5103681;28;20412;-74
2023/07/11 09:51:36;;;;;;;6.55;1.10;;;28.20;99.90;;;;;;5096740;28;20398;-74
2023/07/11 09:54:22;;;;;;;7.40;1.40;;;28.30;99.90;;;;;;5096118;28;20475;-74
2023/07/11 09:56:49;;;;;;;5.50;1.40;;;28.40;99.90;;;;;;5095760;28;20489;-74
2023/07/11 09:59:17;;;;;;;5.27;1.13;;;28.30;99.90;;;;;;5089400;28;20406;-74
2023/07/11 10:01:43;;;;;;;4.90;1.20;;;28.40;99.90;;;;;;5103685;28;20479;-74
2023/07/11 10:04:15;;;;;;;4.13;1.03;;;28.60;99.90;;;;;;5095514;28;20486;-74
2023/07/11 10:06:55;;;;;;;4.03;1.17;;;29.00;99.90;;;;;;5089607;28;20831;-74
2023/07/11 10:09:22;;;;;;;7.70;1.30;;;29.40;99.90;;;;;;5096259;28;20413;-74
2023/07/11 10:11:52;;;;;;;4.00;1.13;;;29.90;99.90;;;;;;5094923;28;20481;-74
2023/07/11 10:14:20;;;;;;;3.55;1.20;;;30.20;99.90;;;;;;5091693;28;20090;-74
2023/07/11 10:16:47;;;;;;;;;;;30.40;99.90;;;;;;5098187;28;20048;-74
2023/07/11 10:19:14;;;;;;;;;;;30.60;99.90;;;;;;5092203;28;19924;-74
2023/07/11 10:21:42;;;;;;;;;;;30.60;99.90;;;;;;5096335;28;19977;-74
2023/07/11 10:24:14;;;;;;;;;;;30.70;99.90;;;;;;5098701;28;20628;-74
2023/07/11 10:26:40;;;;;;;;;;;30.80;99.90;;;;;;5093885;28;19938;-74
2023/07/11 10:29:10;;;;;;;;;;;31.10;99.90;;;;;;5097354;28;19924;-74
2023/07/11 10:31:54;;;;;;;;;;;31.30;97.90;;;;;;5095314;28;19978;-74
2023/07/11 10:34:23;;;;;;;;;;;31.40;98.70;;;;;;5089718;28;19973;-74
2023/07/11 10:36:50;;;;;;;;;;;31.30;95.80;;;;;;5095839;28;19926;-74
2023/07/11 10:39:20;;;;;;;;;;;31.20;93.80;;;;;;5086416;28;19946;-74
2023/07/11 10:41:50;;;;;;;;;;;31.10;92.60;;;;;;5102614;28;20288;-74
2023/07/11 10:44:20;;;;;;;;;;;31.10;91.50;;;;;;5101940;28;20027;-74
2023/07/11 10:46:47;;;;;;;;;;;30.90;87.30;;;;;;5102014;28;19924;-74
2023/07/11 10:49:15;;;;;;;;;;;30.80;90.20;;;;;;5102057;28;20012;-74
2023/07/11 10:51:49;;;;;;;;;;;30.80;86.50;;;;;;5095049;28;19927;-74
2023/07/11 10:54:27;;;;;;;;;;;30.80;87.70;;;;;;5098636;28;20602;-74
2023/07/11 10:56:57;;;;;;;;;;;30.80;87.20;;;;;;5096719;28;20389;-74
2023/07/11 10:59:25;;;;;;;;;;;30.90;84.30;;;;;;5090835;28;20424;-74
2023/07/11 11:01:57;;;;;;;;;;;30.90;86.30;;;;;;5101894;28;20302;-74
2023/07/11 11:04:28;;;;;;;;;;;31.10;84.80;;;;;;5089930;28;20023;-74
2023/07/11 11:07:00;;;;;;;;;;;31.20;85.10;;;;;;5095127;28;19920;-74
2023/07/11 11:09:35;;;;;;;;;;;31.30;84.60;;;;;;5101201;28;19924;-74
2023/07/11 11:12:04;;;;;;;;;;;31.30;82.70;;;;;;5099956;28;20007;-74
2023/07/11 11:14:35;;;;;;;;;;;31.10;80.20;;;;;;5094261;28;20386;-74
2023/07/11 11:17:07;;;;;;;;;;;31.00;79.70;;;;;;5097143;28;20091;-74
2023/07/11 11:19:39;;;;;;;;;;;31.00;80.60;;;;;;5102649;28;19923;-74
2023/07/11 11:22:15;;;;;;;;;;;31.10;79.70;;;;;;5089114;28;19920;-74
2023/07/11 11:24:53;;;;;;;;;;;31.10;78.80;;;;;;5101103;28;19939;-74
2023/07/11 11:27:22;;;;;;;;;;;31.00;79.00;;;;;;5098746;28;20390;-74
2023/07/11 11:29:58;;;;;;;;;;;31.10;78.50;;;;;;5097903;28;19965;-74
2023/07/11 11:32:24;;;;;;;;;;;31.30;79.40;;;;;;5095487;28;19919;-74
2023/07/11 11:34:53;;;;;;;;;;;31.30;79.10;;;;;;5090637;28;19920;-74
2023/07/11 11:37:28;;;;;;;;;;;31.30;78.80;;;;;;5099984;28;19927;-74
2023/07/11 11:39:53;;;;;;;;;;;31.20;75.50;;;;;;5090498;28;19927;-74
2023/07/11 11:42:22;;;;;;;;;;;31.20;78.60;;;;;;5099916;28;19924;-74
2023/07/11 11:44:51;;;;;;;;;;;31.30;75.60;;;;;;5104824;28;20025;-74
2023/07/11 11:47:17;;;;;;;;;;;31.60;77.80;;;;;;5094686;28;19968;-74
2023/07/11 11:49:44;;;;;;;;;;;31.70;75.90;;;;;;5089753;28;19927;-74
2023/07/11 11:52:10;;;;;;;;;;;32.00;77.30;;;;;;5104842;28;19989;-74
2023/07/11 11:54:37;;;;;;;;;;;32.20;77.50;;;;;;5103655;28;19920;-74
2023/07/11 11:57:03;;;;;;;5.20;1.38;;;32.20;75.90;;;;;;5103295;28;19992;-74
2023/07/11 11:59:31;;;;;;;3.90;1.05;;;32.20;75.50;;;;;;5102993;28;20400;-74
2023/07/11 12:02:01;;;;;;;4.47;1.10;;;32.10;75.00;;;;;;5102457;28;20388;-74
2023/07/11 12:04:27;;;;;;;3.50;1.20;;;32.10;89.90;;;;;;5102635;28;20912;-74
2023/07/11 12:07:12;;;;;;;4.00;0.90;;;32.10;75.10;;;;;;5098925;28;20432;-74
2023/07/11 12:09:53;;;;;;;3.78;0.90;;;32.00;73.50;;;;;;5086533;28;20416;-74
2023/07/11 12:12:21;;;;;;;4.07;1.10;;;31.90;72.50;;;;;;5076750;28;20429;-74
2023/07/11 12:14:51;;;;;;;3.55;0.98;;;31.90;74.00;;;;;;5100508;28;20852;-74
2023/07/11 12:17:32;;;;;;;4.63;0.93;;;32.10;72.10;;;;;;5098288;28;20760;-74
2023/07/11 12:20:00;;;;;;;;;;;32.40;71.50;;;;;;5099871;28;20044;-74
2023/07/11 12:22:46;;;;;;;;;;;32.50;69.40;;;;;;5101368;28;19962;-74
2023/07/11 12:25:11;;;;;;;;;;;32.70;69.00;;;;;;5045008;28;19924;-74
2023/07/11 12:27:39;;;;;;;;;;;32.70;67.10;;;;;;5102151;28;21461;-74
2023/07/11 12:30:13;;;;;;;;;;;32.70;66.10;;;;;;5094642;28;19974;-74
2023/07/11 12:32:49;;;;;;;;;;;32.60;65.50;;;;;;5089022;28;19964;-74
2023/07/11 12:35:17;;;;;;;;;;;32.50;63.60;;;;;;5097636;28;19974;-74
2023/07/11 12:37:47;;;;;;;;;;;32.40;64.80;;;;;;5074994;28;19975;-74
2023/07/11 12:40:16;;;;;;;;;;;32.50;64.40;;;;;;5088345;28;19938;-74
2023/07/11 12:43:00;;;;;;;;;;;32.40;61.30;;;;;;5096569;28;20031;-74
2023/07/11 12:45:34;;;;;;;;;;;32.40;62.70;;;;;;5088803;28;19924;-74
2023/07/11 12:48:14;;;;;;;;;;;32.50;61.80;;;;;;5077185;28;19928;-74
2023/07/11 12:50:43;;;;;;;;;;;32.50;61.90;;;;;;5100992;28;19928;-74
2023/07/11 12:53:08;;;;;;;;;;;32.50;62.00;;;;;;5102221;28;19985;-74
2023/07/11 12:55:34;;;;;;;;;;;32.70;62.00;;;;;;5101126;28;20414;-74
2023/07/11 12:58:00;;;;;;;;;;;32.80;60.90;;;;;;5075373;28;20046;-74
2023/07/11 13:00:29;;;;;;;;;;;32.70;59.40;;;;;;5100785;28;20026;-74
2023/07/11 13:02:58;;;;;;;;;;;32.40;58.50;;;;;;5100363;28;19924;-74
2023/07/11 13:05:24;;;;;;;;;;;32.00;57.00;;;;;;5099010;28;19932;-74
2023/07/11 13:07:50;;;;;;;;;;;31.80;56.00;;;;;;5101376;28;19928;-74
2023/07/11 13:10:23;;;;;;;;;;;31.60;55.60;;;;;;5097471;28;20015;-74
2023/07/11 13:12:48;;;;;;;;;;;31.60;55.10;;;;;;5093929;28;19924;-74